Time;durP1;ratioP1;P1;durP2;ratioP2;P2;SDS_P1;SDS_P2;PMS_P1;PMS_P2;Temp;Humidity;BMP_temperature;BMP_pressure;BME280_temperature;BME280_humidity;BME280_pressure;Samples;Min_cycle;Max_cycle;Signal;HPM_P1;HPM_P2
2022/09/13 00:00:26;;;;;;;2.75;1.42;;;12.40;99.90;;;;;;5005644;28;20050;-81
2022/09/13 00:02:51;;;;;;;2.50;1.55;;;12.40;99.90;;;;;;5005789;28;20022;-81
2022/09/13 00:05:17;;;;;;;2.25;1.30;;;12.50;99.90;;;;;;5005855;28;20026;-82
2022/09/13 00:07:42;;;;;;;2.22;1.38;;;12.50;99.90;;;;;;5001905;28;20030;-82
2022/09/13 00:10:08;;;;;;;3.58;1.60;;;12.60;99.90;;;;;;4998128;28;20080;-82
2022/09/13 00:12:34;;;;;;;1.95;1.45;;;12.70;99.90;;;;;;5005334;28;20042;-82
2022/09/13 00:14:59;;;;;;;1.52;1.13;;;12.60;99.90;;;;;;5005144;28;20025;-82
2022/09/13 00:17:25;;;;;;;1.63;1.30;;;12.70;99.90;;;;;;5005439;28;20282;-81
2022/09/13 00:19:51;;;;;;;1.92;1.45;;;12.70;99.90;;;;;;5004449;28;20045;-82
2022/09/13 00:22:16;;;;;;;1.50;1.17;;;12.70;99.90;;;;;;5003364;28;20444;-81
2022/09/13 00:24:42;;;;;;;1.20;1.10;;;12.80;99.90;;;;;;5002944;28;20062;-79
2022/09/13 00:27:07;;;;;;;1.85;1.30;;;12.80;99.90;;;;;;5007609;28;20387;-82
2022/09/13 00:29:33;;;;;;;2.55;1.00;;;12.80;99.90;;;;;;5006472;28;20044;-81
2022/09/13 00:31:58;;;;;;;2.10;1.23;;;12.80;99.90;;;;;;5004792;28;20026;-78
2022/09/13 00:34:24;;;;;;;1.52;1.42;;;12.90;99.90;;;;;;5001776;28;20025;-82
2022/09/13 00:36:49;;;;;;;1.98;1.42;;;13.00;99.90;;;;;;4993967;28;20034;-81
2022/09/13 00:39:15;;;;;;;1.88;1.48;;;13.00;99.90;;;;;;5000613;28;20062;-81
2022/09/13 00:41:40;;;;;;;2.58;1.67;;;13.20;99.90;;;;;;4999436;28;20023;-82
2022/09/13 00:44:44;;;;;;;1.40;1.30;;;13.10;99.90;;;;;;5003638;28;20531;-81
2022/09/13 00:47:12;;;;;;;1.08;1.00;;;13.10;99.90;;;;;;5006323;28;20087;-82
2022/09/13 00:49:40;;;;;;;1.70;1.38;;;13.10;99.90;;;;;;5005555;28;20109;-82
2022/09/13 00:52:12;;;;;;;1.48;1.20;;;13.00;99.90;;;;;;5004001;28;20116;-80
2022/09/13 00:54:54;;;;;;;1.80;1.38;;;13.00;99.90;;;;;;5007120;28;20030;-81
2022/09/13 00:57:23;;;;;;;1.33;1.23;;;13.20;99.90;;;;;;4994562;28;20065;-82
2022/09/13 01:00:02;;;;;;;1.40;1.30;;;13.10;99.90;;;;;;5003269;28;20073;-81
2022/09/13 01:02:28;;;;;;;1.40;1.30;;;13.00;99.90;;;;;;5006524;28;20025;-82
2022/09/13 01:04:54;;;;;;;1.40;1.30;;;13.00;99.90;;;;;;5004767;28;20474;-82
2022/09/13 01:07:19;;;;;;;1.60;1.27;;;12.90;99.90;;;;;;5002895;28;20030;-81
2022/09/13 01:09:49;;;;;;;1.30;1.10;;;13.00;99.90;;;;;;5007086;28;20034;-81
2022/09/13 01:12:17;;;;;;;2.13;1.30;;;12.90;99.90;;;;;;5001178;28;20274;-81
2022/09/13 01:14:45;;;;;;;1.25;1.15;;;13.10;99.90;;;;;;5007522;28;20057;-81
2022/09/13 01:17:10;;;;;;;1.50;1.40;;;13.00;99.90;;;;;;5006179;28;20050;-81
2022/09/13 01:19:36;;;;;;;1.10;1.05;;;12.90;99.90;;;;;;5008011;28;20627;-81
2022/09/13 01:22:11;;;;;;;1.00;1.00;;;12.90;99.90;;;;;;5005871;28;20030;-82
2022/09/13 01:25:02;;;;;;;1.40;1.30;;;12.80;99.90;;;;;;5002299;28;20366;-82
2022/09/13 01:27:45;;;;;;;1.30;1.20;;;12.80;99.90;;;;;;5004224;28;20393;-82
2022/09/13 01:30:14;;;;;;;1.65;1.13;;;12.80;99.90;;;;;;4995829;28;20064;-82
2022/09/13 01:33:01;;;;;;;2.45;1.40;;;12.80;99.90;;;;;;5006281;28;20026;-80
2022/09/13 01:36:01;;;;;;;1.83;0.98;;;12.90;99.90;;;;;;4998667;28;20451;-82
2022/09/13 01:38:45;;;;;;;1.45;1.30;;;12.80;99.90;;;;;;5001648;28;20030;-82
2022/09/13 01:41:34;;;;;;;1.48;1.30;;;12.60;99.90;;;;;;5003677;28;20112;-82
2022/09/13 01:44:23;;;;;;;1.25;1.15;;;12.60;99.90;;;;;;5003804;28;20123;-82
2022/09/13 01:47:24;;;;;;;1.40;1.10;;;12.50;99.90;;;;;;5007159;28;20026;-82
2022/09/13 01:50:14;;;;;;;1.17;1.08;;;12.60;99.90;;;;;;5001230;28;20052;-82
2022/09/13 01:52:52;;;;;;;1.20;1.10;;;12.60;99.90;;;;;;4998613;28;20034;-81
2022/09/13 01:55:37;;;;;;;1.13;1.02;;;12.50;99.90;;;;;;5000165;28;20427;-82
2022/09/13 01:58:27;;;;;;;1.35;1.25;;;12.60;99.90;;;;;;5001958;28;20396;-81
2022/09/13 02:01:06;;;;;;;1.33;1.23;;;12.70;99.90;;;;;;5000723;28;20040;-81
2022/09/13 02:03:42;;;;;;;1.10;1.00;;;12.70;99.90;;;;;;4997190;28;20483;-82
2022/09/13 02:06:16;;;;;;;6.07;1.13;;;12.80;99.90;;;;;;4997281;28;20269;-82
2022/09/13 02:08:46;;;;;;;1.10;1.00;;;12.80;99.90;;;;;;5002954;28;20049;-82
2022/09/13 02:11:17;;;;;;;1.25;1.08;;;12.80;99.90;;;;;;5002636;28;20093;-82
2022/09/13 02:13:50;;;;;;;1.60;1.20;;;12.80;99.90;;;;;;5002656;28;20034;-81
2022/09/13 02:16:32;;;;;;;1.05;1.02;;;12.90;99.90;;;;;;5004697;28;20053;-81
2022/09/13 02:19:04;;;;;;;1.95;1.33;;;12.90;99.90;;;;;;5008046;28;20129;-81
2022/09/13 02:21:34;;;;;;;1.40;1.30;;;12.90;99.90;;;;;;5003319;28;20428;-81
2022/09/13 02:24:05;;;;;;;1.92;1.48;;;12.90;99.90;;;;;;5001777;28;20508;-79
2022/09/13 02:26:33;;;;;;;1.70;1.60;;;12.90;99.90;;;;;;5004518;28;20499;-81
2022/09/13 02:29:06;;;;;;;2.17;1.48;;;13.10;99.90;;;;;;5003950;28;20065;-82
2022/09/13 02:31:36;;;;;;;1.52;1.42;;;13.10;99.90;;;;;;5003386;28;20057;-82
2022/09/13 02:34:19;;;;;;;1.50;1.38;;;13.10;99.90;;;;;;5000266;28;20033;-82
2022/09/13 02:36:48;;;;;;;1.55;1.45;;;12.90;99.90;;;;;;5004341;28;20088;-81
2022/09/13 02:39:16;;;;;;;2.08;1.67;;;12.90;99.90;;;;;;5003791;28;20032;-81
2022/09/13 02:41:51;;;;;;;2.50;1.52;;;12.90;99.90;;;;;;5004100;28;20045;-81
2022/09/13 02:44:39;;;;;;;1.73;1.27;;;12.90;99.90;;;;;;5003085;28;20030;-81
2022/09/13 02:47:32;;;;;;;1.42;1.23;;;12.90;99.90;;;;;;5005325;28;20384;-81
2022/09/13 02:50:08;;;;;;;1.20;1.10;;;13.00;99.90;;;;;;5005617;28;20097;-82
2022/09/13 02:52:48;;;;;;;1.90;1.48;;;13.00;99.90;;;;;;5003424;28;20160;-81
2022/09/13 02:55:26;;;;;;;3.83;1.63;;;13.10;99.90;;;;;;4997538;28;20026;-83
2022/09/13 02:58:15;;;;;;;2.55;1.85;;;13.20;99.90;;;;;;5005832;28;20057;-81
2022/09/13 03:00:41;;;;;;;2.15;1.50;;;13.10;99.90;;;;;;5004472;28;20181;-82
2022/09/13 03:03:11;;;;;;;1.88;1.05;;;13.20;99.90;;;;;;4996920;28;20479;-82
2022/09/13 03:05:36;;;;;;;1.65;1.33;;;13.20;99.90;;;;;;4993384;28;20034;-81
2022/09/13 03:08:05;;;;;;;1.70;1.20;;;13.30;99.90;;;;;;5002290;28;20022;-81
2022/09/13 03:10:50;;;;;;;1.70;1.40;;;13.30;99.90;;;;;;4998701;28;20030;-81
2022/09/13 03:13:41;;;;;;;2.45;1.70;;;13.30;99.90;;;;;;4997467;28;20603;-81
2022/09/13 03:16:37;;;;;;;2.08;1.58;;;13.30;99.90;;;;;;5004173;28;20111;-82
2022/09/13 03:19:28;;;;;;;2.22;1.80;;;13.40;99.90;;;;;;5004989;28;20050;-82
2022/09/13 03:22:37;;;;;;;1.80;1.27;;;13.30;99.90;;;;;;4996977;28;20105;-82
2022/09/13 03:25:26;;;;;;;2.17;1.50;;;13.20;99.90;;;;;;4983295;28;20034;-81
2022/09/13 03:28:27;;;;;;;1.83;1.48;;;13.10;99.90;;;;;;5001972;28;20041;-81
2022/09/13 03:31:06;;;;;;;2.10;1.77;;;13.10;99.90;;;;;;5003979;28;20034;-81
2022/09/13 03:33:58;;;;;;;1.92;1.67;;;13.00;99.90;;;;;;5002021;28;20025;-81
2022/09/13 03:36:41;;;;;;;3.15;1.55;;;13.00;99.90;;;;;;4992040;28;20038;-82
2022/09/13 03:39:17;;;;;;;2.10;1.42;;;12.90;99.90;;;;;;5010179;28;20035;-81
2022/09/13 03:41:50;;;;;;;1.83;1.27;;;12.90;99.90;;;;;;5001394;28;20033;-82
2022/09/13 03:44:18;;;;;;;3.33;1.60;;;13.00;99.90;;;;;;4999657;28;20018;-81
2022/09/13 03:46:51;;;;;;;1.50;1.40;;;13.20;99.90;;;;;;5001933;28;20030;-81
2022/09/13 03:49:19;;;;;;;2.30;1.60;;;13.20;99.90;;;;;;5004725;28;20037;-81
2022/09/13 03:51:47;;;;;;;2.28;1.67;;;13.20;99.90;;;;;;4994377;28;20393;-81
2022/09/13 03:54:28;;;;;;;4.65;1.90;;;13.30;99.90;;;;;;4990305;28;20034;-82
2022/09/13 03:57:07;;;;;;;2.40;1.60;;;13.30;99.90;;;;;;5002115;28;20030;-81
2022/09/13 03:59:35;;;;;;;1.58;1.48;;;13.30;99.90;;;;;;4996922;28;20118;-81
2022/09/13 04:02:01;;;;;;;2.20;1.67;;;13.40;99.90;;;;;;5000583;28;20482;-80
2022/09/13 04:04:27;;;;;;;2.67;1.50;;;13.40;99.90;;;;;;5003430;28;20065;-82
2022/09/13 04:06:55;;;;;;;2.78;1.40;;;13.50;99.90;;;;;;5005057;28;20546;-82
2022/09/13 04:09:21;;;;;;;1.70;1.55;;;13.60;99.90;;;;;;5000223;28;20022;-81
2022/09/13 04:11:47;;;;;;;1.83;1.50;;;13.70;99.90;;;;;;4999631;28;20018;-80
2022/09/13 04:14:14;;;;;;;2.42;1.58;;;13.70;99.90;;;;;;4998313;28;20033;-81
2022/09/13 04:16:40;;;;;;;3.10;2.17;;;13.70;99.90;;;;;;5003323;28;20119;-80
2022/09/13 04:19:06;;;;;;;1.92;1.35;;;13.80;99.90;;;;;;5002648;28;20731;-83
2022/09/13 04:21:31;;;;;;;2.47;2.17;;;13.90;99.90;;;;;;4998112;28;20393;-83
2022/09/13 04:23:57;;;;;;;2.05;1.70;;;13.90;99.90;;;;;;5002185;28;20481;-81
2022/09/13 04:26:22;;;;;;;4.63;1.85;;;13.90;99.90;;;;;;5007302;28;20533;-78
2022/09/13 04:28:48;;;;;;;2.47;1.73;;;13.90;99.90;;;;;;5000468;28;20155;-85
2022/09/13 04:31:13;;;;;;;1.75;1.60;;;13.90;99.90;;;;;;5001851;28;20428;-89
2022/09/13 04:33:40;;;;;;;1.90;1.58;;;13.90;99.90;;;;;;5001532;28;20034;-77
2022/09/13 04:36:05;;;;;;;3.88;2.38;;;13.90;99.90;;;;;;5007235;28;20053;-83
2022/09/13 04:38:31;;;;;;;3.22;2.00;;;13.90;99.90;;;;;;4994827;28;21959;-87
2022/09/13 04:41:06;;;;;;;3.10;2.20;;;14.00;99.90;;;;;;4998792;28;20728;-82
2022/09/13 04:43:31;;;;;;;3.40;2.03;;;13.90;99.90;;;;;;4986409;28;20024;-83
2022/09/13 04:46:00;;;;;;;2.17;1.98;;;13.90;99.90;;;;;;4992066;28;20030;-83
2022/09/13 04:48:26;;;;;;;1.73;1.58;;;13.80;99.90;;;;;;5007455;28;20153;-82
2022/09/13 04:50:52;;;;;;;6.22;1.50;;;13.80;99.90;;;;;;5001313;28;20464;-83
2022/09/13 04:53:17;;;;;;;2.97;1.88;;;13.80;99.90;;;;;;5007172;28;20027;-81
2022/09/13 04:55:43;;;;;;;2.50;2.03;;;13.90;99.90;;;;;;5007388;28;20042;-81
2022/09/13 04:58:08;;;;;;;2.05;1.85;;;14.10;99.90;;;;;;5006582;28;20022;-82
2022/09/13 05:00:34;;;;;;;3.13;2.15;;;14.20;99.90;;;;;;5007194;28;20070;-84
2022/09/13 05:03:00;;;;;;;2.42;1.95;;;14.30;99.90;;;;;;5005000;28;20038;-84
2022/09/13 05:05:27;;;;;;;2.75;1.98;;;14.30;99.90;;;;;;5005212;28;20081;-83
2022/09/13 05:07:53;;;;;;;5.13;1.90;;;14.30;99.90;;;;;;5010469;28;20064;-81
2022/09/13 05:10:18;;;;;;;5.05;2.63;;;14.40;99.90;;;;;;5000601;28;20057;-81
2022/09/13 05:12:44;;;;;;;3.10;2.28;;;14.40;99.90;;;;;;5005654;28;20041;-79
2022/09/13 05:15:10;;;;;;;2.50;2.00;;;14.40;99.90;;;;;;5007628;28;20037;-80
2022/09/13 05:17:36;;;;;;;2.92;2.22;;;14.50;99.90;;;;;;5006799;28;20200;-83
2022/09/13 05:20:03;;;;;;;3.03;2.08;;;14.50;99.90;;;;;;5001385;28;20034;-80
2022/09/13 05:22:29;;;;;;;2.95;2.00;;;14.50;99.90;;;;;;5000014;28;20022;-78
2022/09/13 05:24:55;;;;;;;2.25;2.03;;;14.50;99.90;;;;;;5001089;28;20097;-81
2022/09/13 05:27:21;;;;;;;2.63;2.00;;;14.50;99.90;;;;;;5002664;28;20036;-80
2022/09/13 05:29:46;;;;;;;2.47;2.00;;;14.50;99.90;;;;;;4998278;28;20034;-81
2022/09/13 05:32:12;;;;;;;3.30;2.22;;;14.50;99.90;;;;;;5008212;28;20579;-81
2022/09/13 05:34:37;;;;;;;4.38;2.30;;;14.50;99.90;;;;;;5008141;28;20036;-82
2022/09/13 05:37:04;;;;;;;2.65;1.80;;;14.50;99.90;;;;;;5009456;28;20049;-82
2022/09/13 05:39:30;;;;;;;4.05;2.63;;;14.50;99.90;;;;;;5002143;28;20030;-82
2022/09/13 05:41:55;;;;;;;4.35;2.38;;;14.50;99.90;;;;;;5000599;28;20037;-81
2022/09/13 05:44:21;;;;;;;2.45;2.03;;;14.50;99.90;;;;;;5004487;28;20022;-82
2022/09/13 05:46:47;;;;;;;6.10;2.65;;;14.50;99.90;;;;;;4994515;28;20143;-79
2022/09/13 05:49:12;;;;;;;3.97;2.33;;;14.50;99.90;;;;;;5008950;28;20034;-77
2022/09/13 05:51:38;;;;;;;3.55;2.40;;;14.50;99.90;;;;;;4998505;28;20030;-80
2022/09/13 05:54:04;;;;;;;4.55;3.03;;;14.50;99.90;;;;;;4994581;28;20037;-80
2022/09/13 05:56:30;;;;;;;2.58;2.00;;;14.50;99.90;;;;;;4999343;28;20033;-82
2022/09/13 05:58:57;;;;;;;2.65;1.98;;;14.40;99.90;;;;;;5002949;28;20030;-84
2022/09/13 06:01:24;;;;;;;4.47;2.45;;;14.40;99.90;;;;;;5001892;28;20113;-84
2022/09/13 06:03:52;;;;;;;2.85;2.08;;;14.40;99.90;;;;;;5002016;28;20504;-81
2022/09/13 06:06:18;;;;;;;3.28;2.38;;;14.50;99.90;;;;;;4993155;28;20030;-78
2022/09/13 06:08:44;;;;;;;3.22;2.47;;;14.50;99.90;;;;;;5001418;28;20084;-83
2022/09/13 06:11:11;;;;;;;4.65;2.92;;;14.50;99.90;;;;;;4995507;28;20021;-85
2022/09/13 06:13:37;;;;;;;3.22;2.53;;;14.60;99.90;;;;;;5002440;28;20028;-89
2022/09/13 06:16:05;;;;;;;2.83;2.40;;;14.60;99.90;;;;;;5006132;28;20026;-87
2022/09/13 06:18:32;;;;;;;3.72;2.25;;;14.60;99.90;;;;;;5003884;28;20481;-85
2022/09/13 06:20:59;;;;;;;4.70;2.60;;;14.50;99.90;;;;;;4998195;28;20018;-88
2022/09/13 06:23:26;;;;;;;4.07;2.88;;;14.40;99.90;;;;;;5000101;28;20108;-89
2022/09/13 06:25:59;;;;;;;2.47;2.10;;;14.40;99.90;;;;;;5010266;28;20052;-86
2022/09/13 06:28:25;;;;;;;4.22;2.42;;;14.30;99.90;;;;;;5002322;28;20042;-92
2022/09/13 06:30:50;;;;;;;3.42;2.60;;;14.10;99.90;;;;;;5004183;28;20377;-91
2022/09/13 06:33:16;;;;;;;4.22;2.72;;;14.20;99.90;;;;;;5011175;28;20120;-85
2022/09/13 06:35:41;;;;;;;5.03;2.75;;;14.20;99.90;;;;;;5006366;28;20049;-80
2022/09/13 06:38:07;;;;;;;3.53;2.53;;;14.20;99.90;;;;;;5001296;28;20048;-75
2022/09/13 06:40:32;;;;;;;4.07;2.40;;;14.30;99.90;;;;;;5004571;28;20408;-74
2022/09/13 06:42:57;;;;;;;3.70;2.45;;;14.40;99.90;;;;;;5006505;28;20072;-83
2022/09/13 06:45:23;;;;;;;4.88;2.83;;;14.50;99.90;;;;;;5003888;28;20026;-80
2022/09/13 06:47:48;;;;;;;4.10;2.83;;;14.60;99.90;;;;;;5005474;28;20041;-81
2022/09/13 06:50:14;;;;;;;4.57;2.80;;;14.80;99.90;;;;;;5002883;28;20049;-82
2022/09/13 06:52:39;;;;;;;3.85;2.53;;;15.10;99.90;;;;;;4977780;28;20030;-83
2022/09/13 06:55:05;;;;;;;5.15;2.58;;;15.20;99.90;;;;;;4998637;28;20093;-81
2022/09/13 06:57:31;;;;;;;4.32;2.75;;;15.30;99.90;;;;;;4998869;28;20026;-82
2022/09/13 06:59:56;;;;;;;4.85;2.92;;;15.40;99.90;;;;;;4999934;28;20037;-82
2022/09/13 07:02:23;;;;;;;3.72;2.65;;;15.50;99.90;;;;;;5001525;28;20022;-82
2022/09/13 07:04:52;;;;;;;4.18;2.85;;;15.60;99.90;;;;;;5003346;28;20026;-84
2022/09/13 07:07:18;;;;;;;3.50;2.85;;;15.60;99.90;;;;;;5005580;28;20033;-80
2022/09/13 07:09:43;;;;;;;3.75;2.78;;;15.60;99.90;;;;;;5002838;28;20025;-83
2022/09/13 07:12:11;;;;;;;5.15;2.80;;;15.50;99.90;;;;;;5005719;28;20488;-83
2022/09/13 07:14:37;;;;;;;4.93;3.15;;;15.60;99.90;;;;;;5001181;28;20032;-83
2022/09/13 07:17:08;;;;;;;3.05;2.42;;;15.60;99.90;;;;;;5005124;28;20190;-83
2022/09/13 07:19:34;;;;;;;4.25;2.67;;;15.60;99.90;;;;;;4997687;28;20022;-85
2022/09/13 07:21:59;;;;;;;7.30;3.60;;;15.70;99.90;;;;;;4999579;28;20034;-84
2022/09/13 07:24:26;;;;;;;6.40;3.53;;;15.70;99.90;;;;;;5005550;28;20037;-81
2022/09/13 07:26:51;;;;;;;7.97;4.10;;;15.80;99.90;;;;;;5005951;28;20052;-80
2022/09/13 07:29:21;;;;;;;6.70;2.92;;;15.80;99.90;;;;;;4999985;28;20387;-80
2022/09/13 07:31:53;;;;;;;4.38;3.00;;;15.90;99.90;;;;;;5000745;28;20037;-80
2022/09/13 07:34:21;;;;;;;3.80;2.53;;;16.00;99.90;;;;;;5004855;28;20026;-84
2022/09/13 07:36:47;;;;;;;5.32;3.22;;;16.00;99.90;;;;;;5004691;28;20527;-83
2022/09/13 07:39:14;;;;;;;3.53;2.47;;;16.10;99.90;;;;;;5000594;28;20030;-81
2022/09/13 07:41:40;;;;;;;4.18;3.17;;;16.20;99.90;;;;;;4993640;28;20041;-84
2022/09/13 07:44:06;;;;;;;6.30;3.28;;;16.10;99.90;;;;;;5004767;28;20083;-84
2022/09/13 07:46:40;;;;;;;5.13;3.60;;;16.20;99.90;;;;;;5005654;28;20018;-85
2022/09/13 07:49:06;;;;;;;6.43;3.22;;;16.50;99.90;;;;;;4997695;28;20030;-89
2022/09/13 07:51:33;;;;;;;4.80;3.35;;;16.70;99.90;;;;;;5003901;28;20025;-77
2022/09/13 07:54:03;;;;;;;3.92;2.97;;;16.70;99.90;;;;;;5002475;28;20528;-83
2022/09/13 07:56:31;;;;;;;5.53;2.88;;;16.90;99.90;;;;;;5001365;28;20026;-82
2022/09/13 07:58:59;;;;;;;6.95;4.20;;;16.90;99.90;;;;;;5001761;28;20073;-82
2022/09/13 08:01:32;;;;;;;5.88;3.72;;;17.10;99.90;;;;;;5008459;28;20025;-82
2022/09/13 08:04:03;;;;;;;5.40;3.75;;;17.20;99.90;;;;;;5008044;28;20038;-82
2022/09/13 08:06:31;;;;;;;7.53;3.53;;;17.20;99.90;;;;;;5007467;28;20026;-82
2022/09/13 08:08:57;;;;;;;7.65;4.07;;;17.40;99.90;;;;;;4998214;28;20037;-81
2022/09/13 08:11:27;;;;;;;6.05;4.03;;;17.30;99.90;;;;;;5009746;28;20404;-82
2022/09/13 08:13:53;;;;;;;5.57;3.42;;;17.60;99.90;;;;;;4997999;28;20033;-82
2022/09/13 08:16:20;;;;;;;6.70;3.70;;;17.80;99.90;;;;;;5003208;28;20109;-80
2022/09/13 08:18:49;;;;;;;4.93;3.17;;;17.80;99.90;;;;;;4999102;28;20610;-83
2022/09/13 08:21:14;;;;;;;9.27;3.95;;;18.00;99.90;;;;;;5007368;28;20041;-79
2022/09/13 08:23:40;;;;;;;4.07;3.50;;;17.90;99.90;;;;;;5005043;28;20480;-78
2022/09/13 08:26:07;;;;;;;6.65;4.25;;;17.80;99.90;;;;;;5008011;28;20393;-77
2022/09/13 08:28:34;;;;;;;7.82;3.03;;;17.80;99.90;;;;;;5005920;28;20026;-78
2022/09/13 08:31:05;;;;;;;4.40;3.35;;;17.60;99.90;;;;;;5005649;28;20052;-82
2022/09/13 08:33:31;;;;;;;5.63;3.50;;;17.40;99.90;;;;;;5003608;28;20062;-86
2022/09/13 08:35:57;;;;;;;5.53;3.40;;;17.40;99.90;;;;;;5007338;28;20876;-83
2022/09/13 08:38:22;;;;;;;5.38;3.60;;;17.50;99.90;;;;;;5001073;28;20119;-79
2022/09/13 08:41:03;;;;;;;5.50;3.80;;;17.30;99.90;;;;;;5006188;28;20034;-79
2022/09/13 08:43:49;;;;;;;7.53;3.07;;;17.70;99.90;;;;;;5000246;28;20026;-78
2022/09/13 08:46:26;;;;;;;3.92;2.78;;;17.80;99.90;;;;;;5008774;28;20044;-86
2022/09/13 08:48:56;;;;;;;4.47;3.35;;;17.60;99.90;;;;;;4998322;28;20112;-81
2022/09/13 08:51:32;;;;;;;8.18;4.05;;;17.80;99.90;;;;;;4998489;28;20040;-81
2022/09/13 08:53:58;;;;;;;3.90;3.10;;;18.30;99.90;;;;;;5004861;28;20041;-74
2022/09/13 08:56:42;;;;;;;4.85;2.95;;;18.50;99.90;;;;;;5007388;28;20511;-73
2022/09/13 08:59:46;;;;;;;6.38;3.60;;;18.50;99.90;;;;;;5007691;28;20037;-79
2022/09/13 09:02:20;;;;;;;4.65;3.30;;;18.50;99.90;;;;;;4999156;28;20022;-75
2022/09/13 09:05:00;;;;;;;3.88;2.58;;;18.50;99.90;;;;;;5007220;28;20389;-75
2022/09/13 09:07:31;;;;;;;3.47;2.63;;;18.40;99.90;;;;;;5000208;28;20030;-76
2022/09/13 09:10:02;;;;;;;3.97;2.78;;;18.50;99.90;;;;;;5005734;28;20033;-76
2022/09/13 09:12:37;;;;;;;4.88;3.33;;;18.60;99.90;;;;;;5001424;28;20164;-84
2022/09/13 09:15:13;;;;;;;3.92;3.00;;;18.70;99.90;;;;;;5004847;28;20025;-82
2022/09/13 09:17:53;;;;;;;7.18;3.40;;;18.70;99.90;;;;;;4998908;28;20073;-77
2022/09/13 09:20:25;;;;;;;5.43;3.35;;;19.20;99.90;;;;;;5005070;28;20029;-80
2022/09/13 09:22:53;;;;;;;6.72;2.90;;;19.50;99.90;;;;;;5001027;28;20040;-79
2022/09/13 09:25:22;;;;;;;7.05;3.05;;;19.80;99.90;;;;;;4998446;28;20068;-85
2022/09/13 09:27:48;;;;;;;5.32;3.05;;;19.50;99.90;;;;;;4996864;28;20113;-82
2022/09/13 09:30:14;;;;;;;5.32;3.33;;;19.30;99.90;;;;;;5006638;28;20113;-79
2022/09/13 09:33:05;;;;;;;4.00;2.70;;;19.10;99.90;;;;;;4993394;28;20455;-79
2022/09/13 09:35:50;;;;;;;5.32;2.72;;;18.80;99.90;;;;;;5002288;28;20032;-80
2022/09/13 09:38:21;;;;;;;5.57;3.20;;;19.00;99.90;;;;;;5002135;28;20566;-79
2022/09/13 09:40:47;;;;;;;;;;;19.40;99.90;;;;;;4999259;28;20036;-81
2022/09/13 09:43:32;;;;;;;3.45;2.60;;;20.00;99.90;;;;;;5006616;28;19909;-78
2022/09/13 09:46:01;;;;;;;5.05;3.08;;;21.10;99.90;;;;;;4997964;28;20668;-75
2022/09/13 09:48:33;;;;;;;5.25;2.80;;;21.30;99.90;;;;;;5007901;28;20030;-76
2022/09/13 09:50:59;;;;;;;5.47;2.85;;;20.70;99.90;;;;;;4994759;28;20513;-76
2022/09/13 09:53:33;;;;;;;4.10;2.80;;;20.70;99.90;;;;;;5000807;28;20088;-77
2022/09/13 09:56:04;;;;;;;3.40;2.55;;;20.50;99.90;;;;;;5004626;28;20044;-76
2022/09/13 09:58:45;;;;;;;4.55;2.92;;;20.30;99.90;;;;;;4999450;28;20021;-76
2022/09/13 10:01:27;;;;;;;4.43;2.55;;;21.00;99.90;;;;;;5006047;28;20025;-76
2022/09/13 10:04:09;;;;;;;3.22;2.40;;;22.20;99.90;;;;;;5002960;28;20030;-76
2022/09/13 10:06:36;;;;;;;7.05;2.80;;;23.30;99.90;;;;;;5001830;28;20033;-77
2022/09/13 10:09:21;;;;;;;5.82;3.28;;;24.30;96.20;;;;;;4998004;28;20050;-77
2022/09/13 10:11:58;;;;;;;4.68;2.58;;;25.50;92.30;;;;;;4991200;28;20456;-76
2022/09/13 10:14:45;;;;;;;6.32;3.45;;;25.80;86.60;;;;;;5001467;28;20034;-76
2022/09/13 10:17:22;;;;;;;3.83;3.00;;;24.30;88.70;;;;;;5000676;28;20061;-77
2022/09/13 10:20:03;;;;;;;4.97;3.25;;;23.10;92.60;;;;;;4999396;28;20042;-76
2022/09/13 10:22:30;;;;;;;4.20;2.38;;;23.30;92.50;;;;;;4995951;28;20149;-76
2022/09/13 10:25:26;;;;;;;3.40;2.50;;;23.20;94.00;;;;;;5003142;28;20030;-76
2022/09/13 10:27:55;;;;;;;3.10;2.25;;;23.20;93.60;;;;;;5003708;28;20401;-76
2022/09/13 10:30:36;;;;;;;4.88;3.28;;;22.80;94.70;;;;;;5002335;28;20080;-76
2022/09/13 10:33:03;;;;;;;3.58;2.45;;;22.40;95.70;;;;;;5001517;28;20065;-77
2022/09/13 10:35:29;;;;;;;3.75;2.55;;;21.80;96.20;;;;;;5003489;28;20092;-77
2022/09/13 10:37:55;;;;;;;3.75;2.55;;;21.50;97.90;;;;;;5002550;28;20026;-78
2022/09/13 10:40:37;;;;;;;4.90;2.97;;;20.90;99.90;;;;;;5002684;28;20616;-77
2022/09/13 10:43:12;;;;;;;3.80;2.75;;;20.70;99.90;;;;;;5003850;28;20033;-77
2022/09/13 10:45:39;;;;;;;3.63;2.45;;;20.60;99.90;;;;;;5004032;28;20686;-77
2022/09/13 10:48:12;;;;;;;4.03;2.53;;;20.10;99.90;;;;;;5001782;28;20030;-77
2022/09/13 10:50:37;;;;;;;4.32;2.97;;;20.00;99.90;;;;;;5001510;28;20041;-78
2022/09/13 10:53:04;;;;;;;3.58;2.63;;;19.90;99.90;;;;;;5005894;28;20026;-78
2022/09/13 10:55:41;;;;;;;7.90;2.92;;;20.00;99.90;;;;;;5003890;28;20029;-77
2022/09/13 10:58:06;;;;;;;4.97;3.38;;;20.20;99.90;;;;;;5001994;28;20127;-79
2022/09/13 11:01:10;;;;;;;5.00;2.72;;;20.10;99.90;;;;;;5005109;28;20544;-76
2022/09/13 11:04:03;;;;;;;4.15;2.50;;;20.10;99.90;;;;;;5003156;28;20025;-75
2022/09/13 11:07:02;;;;;;;8.38;3.17;;;20.00;99.90;;;;;;4998288;28;20020;-78
2022/09/13 11:09:38;;;;;;;6.38;3.08;;;19.70;99.90;;;;;;4995881;28;20400;-77
2022/09/13 11:12:39;;;;;;;4.25;2.75;;;19.60;99.90;;;;;;5004822;28;20034;-78
2022/09/13 11:15:31;;;;;;;4.05;2.83;;;19.50;99.90;;;;;;5004578;28;20033;-77
2022/09/13 11:18:23;;;;;;;4.43;2.47;;;19.40;99.90;;;;;;5007510;28;20081;-77
2022/09/13 11:21:06;;;;;;;3.88;2.55;;;19.50;99.90;;;;;;5027331;28;20521;-79
2022/09/13 11:23:54;;;;;;;4.18;2.45;;;19.40;99.90;;;;;;5012434;28;20552;-77
2022/09/13 11:26:47;;;;;;;5.38;3.13;;;19.40;99.90;;;;;;5019035;28;20463;-77
2022/09/13 11:29:39;;;;;;;5.68;3.10;;;19.40;99.90;;;;;;5018330;28;20131;-77
2022/09/13 11:32:23;;;;;;;;;;;19.20;99.90;;;;;;5018624;28;20146;-77
2022/09/13 11:35:14;;;;;;;4.20;2.65;;;19.10;99.90;;;;;;5025794;28;19909;-78
2022/09/13 11:37:53;;;;;;;;;;;19.10;99.90;;;;;;5015205;28;20029;-77
2022/09/13 11:40:46;;;;;;;5.15;2.83;;;19.10;99.90;;;;;;5024413;28;20366;-77
2022/09/13 11:43:35;;;;;;;6.47;2.90;;;19.20;99.90;;;;;;5023646;28;20030;-77
2022/09/13 11:46:23;;;;;;;5.35;2.90;;;19.20;99.90;;;;;;5025664;28;20502;-77
2022/09/13 11:49:09;;;;;;;4.13;2.70;;;19.10;99.90;;;;;;5029684;28;20116;-79
2022/09/13 11:52:05;;;;;;;5.22;2.92;;;19.10;99.90;;;;;;5019981;28;20037;-78
2022/09/13 11:54:46;;;;;;;3.78;2.53;;;19.10;99.90;;;;;;5022159;28;20029;-79
2022/09/13 11:57:17;;;;;;;;;;;19.10;99.90;;;;;;5017460;28;20041;-79
2022/09/13 11:59:54;;;;;;;4.80;2.43;;;19.00;99.90;;;;;;5018696;28;19916;-82
2022/09/13 12:02:32;;;;;;;4.03;2.70;;;18.90;99.90;;;;;;5024521;28;20293;-80
2022/09/13 12:05:14;;;;;;;4.65;3.40;;;19.10;99.90;;;;;;5026889;28;20029;-81
2022/09/13 12:07:45;;;;;;;4.53;2.97;;;19.10;99.90;;;;;;5025683;28;20480;-80
2022/09/13 12:10:24;;;;;;;4.22;3.10;;;19.10;99.90;;;;;;5027789;28;20060;-81
2022/09/13 12:12:51;;;;;;;3.38;2.50;;;19.10;99.90;;;;;;5025657;28;20044;-78
2022/09/13 12:15:30;;;;;;;3.08;2.30;;;19.10;99.90;;;;;;5025245;28;20057;-78
2022/09/13 12:18:19;;;;;;;4.90;3.13;;;19.00;99.90;;;;;;5019016;28;20045;-77
2022/09/13 12:20:50;;;;;;;10.50;2.90;;;19.00;99.90;;;;;;4990048;28;20030;-80
2022/09/13 12:23:37;;;;;;;4.10;2.67;;;19.20;99.90;;;;;;5000570;28;20018;-78
2022/09/13 12:26:14;;;;;;;5.78;3.00;;;19.10;99.90;;;;;;4999056;28;20034;-76
2022/09/13 12:28:52;;;;;;;3.28;2.67;;;19.00;99.90;;;;;;5002033;28;20701;-80
2022/09/13 12:31:26;;;;;;;3.78;2.72;;;19.30;99.90;;;;;;5007059;28;20511;-78
2022/09/13 12:33:53;;;;;;;5.00;3.15;;;19.60;99.90;;;;;;5003116;28;20069;-83
2022/09/13 12:36:42;;;;;;;4.47;2.63;;;19.90;99.90;;;;;;5000975;28;20033;-81
2022/09/13 12:39:42;;;;;;;4.40;2.80;;;20.10;99.90;;;;;;5000335;28;20116;-79
2022/09/13 12:42:26;;;;;;;5.13;2.80;;;19.90;99.90;;;;;;4994195;28;20026;-84
2022/09/13 12:45:06;;;;;;;4.55;3.22;;;19.90;99.90;;;;;;5004208;28;20111;-79
2022/09/13 12:48:06;;;;;;;4.25;2.83;;;20.00;99.90;;;;;;5006428;28;20037;-79
2022/09/13 12:50:38;;;;;;;5.10;3.15;;;20.40;99.90;;;;;;5005711;28;20143;-78
2022/09/13 12:53:45;;;;;;;6.00;2.90;;;20.30;99.90;;;;;;5000198;28;20552;-80
2022/09/13 12:56:47;;;;;;;4.00;2.88;;;20.00;99.90;;;;;;5000534;28;20088;-78
2022/09/13 12:59:34;;;;;;;5.38;2.95;;;19.80;99.90;;;;;;5007173;28;20108;-79
2022/09/13 13:02:03;;;;;;;3.75;2.60;;;19.80;99.90;;;;;;5007557;28;20069;-82
2022/09/13 13:04:33;;;;;;;2.10;1.90;;;20.00;99.90;;;;;;5000003;28;20686;-82
2022/09/13 13:07:02;;;;;;;2.65;1.88;;;19.60;99.90;;;;;;5002112;28;20058;-83
2022/09/13 13:09:49;;;;;;;2.67;1.83;;;19.30;99.90;;;;;;4998479;28;20029;-83
2022/09/13 13:12:34;;;;;;;3.30;2.00;;;19.10;99.90;;;;;;4999501;28;20030;-82
2022/09/13 13:15:24;;;;;;;2.70;2.25;;;18.90;99.90;;;;;;5001048;28;20040;-82
2022/09/13 13:17:51;;;;;;;2.28;1.83;;;18.70;99.90;;;;;;4969791;28;20049;-82
2022/09/13 13:21:03;;;;;;;2.17;1.80;;;18.80;99.90;;;;;;5004235;28;20075;-82